createdAt,value
2018-10-19T00:00:25.520Z,32.50
2018-10-19T00:01:25.510Z,33.30
2018-10-19T00:02:25.516Z,33.00
2018-10-19T00:03:25.473Z,31.80
2018-10-19T00:04:25.493Z,31.30
2018-10-19T00:05:25.464Z,31.80
2018-10-19T00:06:25.448Z,30.50
2018-10-19T00:07:25.438Z,29.80
2018-10-19T00:08:25.479Z,28.90
2018-10-19T00:09:25.445Z,29.20
2018-10-19T00:10:25.438Z,29.50
2018-10-19T00:11:25.388Z,27.40
2018-10-19T00:12:25.378Z,26.00
2018-10-19T00:13:25.373Z,24.50
2018-10-19T00:14:25.357Z,24.20
2018-10-19T00:15:25.359Z,25.40
2018-10-19T00:16:25.351Z,25.00
2018-10-19T00:17:25.329Z,26.10
2018-10-19T00:18:25.369Z,26.50
2018-10-19T00:19:25.329Z,25.70
2018-10-19T00:20:25.291Z,25.60
2018-10-19T00:21:25.288Z,24.60
2018-10-19T00:22:25.273Z,25.00
2018-10-19T00:23:25.264Z,23.60
2018-10-19T00:24:25.261Z,23.10
2018-10-19T00:25:25.240Z,23.90
2018-10-19T00:26:25.229Z,22.50
2018-10-19T00:27:25.252Z,23.10
2018-10-19T00:28:25.251Z,21.00
2018-10-19T00:29:25.229Z,20.90
2018-10-19T00:30:25.192Z,21.00
2018-10-19T00:31:25.174Z,21.70
2018-10-19T00:32:25.165Z,22.40
2018-10-19T00:33:25.156Z,27.10
2018-10-19T00:34:25.180Z,30.20
2018-10-19T00:35:25.171Z,27.80
2018-10-19T00:36:25.133Z,27.30
2018-10-19T00:37:25.114Z,24.10
2018-10-19T00:38:25.099Z,24.80
2018-10-19T00:39:25.094Z,25.10
2018-10-19T00:40:25.090Z,25.40
2018-10-19T00:41:25.074Z,24.60
2018-10-19T00:42:25.058Z,24.90
2018-10-19T00:43:25.047Z,23.70
2018-10-19T00:44:25.041Z,24.60
2018-10-19T00:45:25.040Z,23.50
2018-10-19T00:46:25.070Z,24.50
2018-10-19T00:47:25.033Z,25.00
2018-10-19T00:48:25.003Z,25.50
2018-10-19T00:49:24.988Z,30.00
2018-10-19T00:50:24.999Z,32.00
2018-10-19T00:51:24.966Z,33.80
2018-10-19T00:52:24.957Z,35.40
2018-10-19T00:53:24.943Z,36.20
2018-10-19T00:54:24.962Z,35.40
2018-10-19T00:55:24.976Z,36.10
2018-10-19T00:56:24.906Z,34.70
2018-10-19T00:57:24.910Z,34.60
2018-10-19T00:58:24.886Z,34.20
2018-10-19T00:59:24.891Z,32.80
2018-10-19T01:00:24.878Z,33.50
2018-10-19T01:01:24.870Z,33.30
2018-10-19T01:02:24.908Z,34.40
2018-10-19T01:03:24.838Z,34.50
2018-10-19T01:04:24.830Z,34.60
2018-10-19T01:05:24.815Z,33.90
2018-10-19T01:06:24.806Z,33.70
2018-10-19T01:07:24.794Z,34.70
2018-10-19T01:08:24.781Z,34.70
2018-10-19T01:09:24.771Z,34.40
2018-10-19T01:10:24.762Z,33.00
2018-10-19T01:11:24.772Z,33.70
2018-10-19T01:12:24.742Z,32.90
2018-10-19T01:13:24.741Z,34.20
2018-10-19T01:14:24.746Z,33.50
2018-10-19T01:15:24.713Z,34.70
2018-10-19T01:16:24.696Z,34.20
2018-10-19T01:17:24.686Z,36.60
2018-10-19T01:18:24.674Z,35.50
2018-10-19T01:19:24.714Z,34.90
2018-10-19T01:20:24.651Z,33.50
2018-10-19T01:21:24.652Z,33.60
2018-10-19T01:22:24.634Z,34.20
2018-10-19T01:23:24.642Z,34.00
2018-10-19T01:24:24.621Z,34.90
2018-10-19T01:25:24.612Z,33.90
2018-10-19T01:26:24.618Z,34.20
2018-10-19T01:27:24.579Z,33.60
2018-10-19T01:28:24.577Z,32.30
2018-10-19T01:29:24.563Z,33.40
2018-10-19T01:30:24.547Z,34.40
2018-10-19T01:31:24.534Z,33.80
2018-10-19T01:32:24.524Z,32.60
2018-10-19T01:33:24.580Z,32.40
2018-10-19T01:34:24.506Z,33.00
2018-10-19T01:35:24.491Z,32.90
2018-10-19T01:36:24.481Z,31.80
2018-10-19T01:37:24.480Z,32.40
2018-10-19T01:38:24.470Z,31.60
2018-10-19T01:39:24.474Z,32.40
2018-10-19T01:40:24.457Z,32.00
2018-10-19T01:41:24.433Z,31.20
2018-10-19T01:42:24.421Z,31.40
2018-10-19T01:43:24.424Z,29.90
2018-10-19T01:44:24.412Z,29.20
2018-10-19T01:45:24.406Z,30.30
2018-10-19T01:46:24.377Z,30.90
2018-10-19T01:47:24.369Z,30.20
2018-10-19T01:48:24.356Z,30.50
2018-10-19T01:49:24.364Z,31.30
2018-10-19T01:50:24.341Z,31.70
2018-10-19T01:51:24.338Z,32.70
2018-10-19T01:52:24.318Z,32.30
2018-10-19T01:53:24.313Z,32.50
2018-10-19T01:54:24.308Z,33.40
2018-10-19T01:55:24.284Z,32.70
2018-10-19T01:56:24.274Z,34.10
2018-10-19T01:57:24.377Z,31.20
2018-10-19T01:58:24.249Z,31.30
2018-10-19T01:59:24.241Z,32.40
2018-10-19T02:00:24.231Z,32.90
2018-10-19T02:01:24.215Z,31.00
2018-10-19T02:02:24.236Z,32.60
2018-10-19T02:03:24.200Z,31.90
2018-10-19T02:04:24.207Z,31.00
2018-10-19T02:05:24.207Z,30.50
2018-10-19T02:06:24.166Z,31.60
2018-10-19T02:07:24.166Z,32.50
2018-10-19T02:08:24.149Z,30.80
2018-10-19T02:09:24.146Z,31.60
2018-10-19T02:10:24.124Z,31.90
2018-10-19T02:11:24.154Z,32.40
2018-10-19T02:12:24.158Z,31.60
2018-10-19T02:13:24.089Z,31.50
2018-10-19T02:14:24.085Z,34.50
2018-10-19T02:15:24.089Z,32.40
2018-10-19T02:16:24.066Z,32.60
2018-10-19T02:17:24.047Z,31.60
2018-10-19T02:18:24.044Z,33.30
2018-10-19T02:19:24.040Z,34.10
2018-10-19T02:20:24.029Z,35.00
2018-10-19T02:21:24.250Z,35.50
2018-10-19T02:22:23.999Z,35.20
2018-10-19T02:23:24.015Z,35.00
2018-10-19T02:24:23.983Z,35.00
2018-10-19T02:25:23.969Z,35.50
2018-10-19T02:26:23.963Z,35.80
2018-10-19T02:27:23.972Z,35.80
2018-10-19T02:28:23.933Z,33.80
2018-10-19T02:29:23.917Z,34.80
2018-10-19T02:30:23.924Z,33.60
2018-10-19T02:31:23.904Z,35.70
2018-10-19T02:32:23.898Z,35.70
2018-10-19T02:33:24.442Z,38.60
2018-10-19T02:34:23.866Z,36.60
2018-10-19T02:35:23.890Z,34.70
2018-10-19T02:36:23.842Z,32.90
2018-10-19T02:37:23.849Z,33.10
2018-10-19T02:38:23.842Z,32.70
2018-10-19T02:39:23.812Z,32.00
2018-10-19T02:40:23.801Z,31.20
2018-10-19T02:41:23.791Z,34.10
2018-10-19T02:42:23.799Z,31.70
2018-10-19T02:43:23.822Z,33.90
2018-10-19T02:44:23.763Z,30.50
2018-10-19T02:45:23.753Z,30.10
2018-10-19T02:46:23.733Z,31.60
2018-10-19T02:47:23.727Z,33.30
2018-10-19T02:48:23.745Z,34.00
2018-10-19T02:49:23.727Z,32.30
2018-10-19T02:50:23.692Z,32.30
2018-10-19T02:51:23.718Z,32.60
2018-10-19T02:52:23.687Z,32.10
2018-10-19T02:53:23.684Z,31.50
2018-10-19T02:54:23.654Z,32.40
2018-10-19T02:55:23.637Z,30.10
2018-10-19T02:56:23.637Z,31.20
2018-10-19T02:57:23.627Z,29.80
2018-10-19T02:58:23.633Z,31.10
2018-10-19T02:59:23.612Z,34.10
2018-10-19T03:00:23.594Z,30.10
2018-10-19T03:01:23.572Z,31.40
2018-10-19T03:02:23.569Z,30.30
2018-10-19T03:03:23.572Z,28.10
2018-10-19T03:04:23.579Z,30.60
2018-10-19T03:05:23.529Z,31.50
2018-10-19T03:06:23.525Z,28.70
2018-10-19T03:07:23.557Z,29.10
2018-10-19T03:08:23.506Z,30.70
2018-10-19T03:09:23.500Z,29.80
2018-10-19T03:10:23.486Z,30.80
2018-10-19T03:11:23.525Z,29.70
2018-10-19T03:12:23.466Z,29.50
2018-10-19T03:13:23.446Z,28.20
2018-10-19T03:14:23.437Z,28.60
2018-10-19T03:15:23.434Z,30.40
2018-10-19T03:16:23.460Z,29.10
2018-10-19T03:17:23.424Z,27.90
2018-10-19T03:18:23.407Z,28.40
2018-10-19T03:19:23.380Z,29.90
2018-10-19T03:20:23.372Z,29.00
2018-10-19T03:21:23.369Z,29.90
2018-10-19T03:22:23.372Z,30.70
2018-10-19T03:23:23.337Z,33.70
2018-10-19T03:24:23.326Z,33.10
2018-10-19T03:25:23.341Z,33.80
2018-10-19T03:26:23.312Z,33.80
2018-10-19T03:27:23.290Z,32.00
2018-10-19T03:28:23.287Z,34.50
2018-10-19T03:29:23.288Z,34.90
2018-10-19T03:30:23.297Z,36.00
2018-10-19T03:31:23.260Z,34.00
2018-10-19T03:32:23.258Z,32.20
2018-10-19T03:33:23.227Z,33.60
2018-10-19T03:34:23.221Z,31.90
2018-10-19T03:35:23.266Z,30.90
2018-10-19T03:36:23.203Z,32.70
2018-10-19T03:37:23.197Z,32.90
2018-10-19T03:38:23.188Z,36.60
2018-10-19T03:39:23.165Z,35.80
2018-10-19T03:40:23.194Z,38.50
2018-10-19T03:41:23.173Z,38.20
2018-10-19T03:42:23.139Z,40.60
2018-10-19T03:43:23.131Z,38.40
2018-10-19T03:44:23.131Z,36.10
2018-10-19T03:45:23.117Z,36.10
2018-10-19T03:46:23.210Z,34.60
2018-10-19T03:47:23.081Z,33.50
2018-10-19T03:48:23.085Z,32.30
2018-10-19T03:49:23.164Z,30.50
2018-10-19T03:50:23.058Z,28.80
2018-10-19T03:51:23.042Z,29.10
2018-10-19T03:52:23.046Z,29.90
2018-10-19T03:53:23.022Z,29.10
2018-10-19T03:54:23.028Z,26.70
2018-10-19T03:55:22.990Z,26.70
2018-10-19T03:56:22.980Z,26.70
2018-10-19T03:57:22.999Z,27.80
2018-10-19T03:58:22.964Z,28.60
2018-10-19T03:59:22.955Z,30.00
2018-10-19T04:00:22.939Z,30.90
2018-10-19T04:01:22.930Z,32.80
2018-10-19T04:02:23.029Z,37.60
2018-10-19T04:03:22.956Z,37.10
2018-10-19T04:04:22.894Z,37.80
2018-10-19T04:05:22.900Z,36.20
2018-10-19T04:06:22.894Z,36.80
2018-10-19T04:07:22.869Z,34.60
2018-10-19T04:08:22.864Z,39.40
2018-10-19T04:09:22.854Z,37.10
2018-10-19T04:10:22.862Z,36.40
2018-10-19T04:11:22.820Z,37.40
2018-10-19T04:12:22.813Z,39.30
2018-10-19T04:13:22.827Z,40.50
2018-10-19T04:14:22.792Z,42.40
2018-10-19T04:15:22.780Z,44.70
2018-10-19T04:16:22.783Z,40.80
2018-10-19T04:17:22.765Z,40.60
2018-10-19T04:18:22.840Z,39.90
2018-10-19T04:19:22.748Z,39.60
2018-10-19T04:20:22.724Z,41.50
2018-10-19T04:21:22.720Z,40.60
2018-10-19T04:22:22.702Z,41.70
2018-10-19T04:23:22.712Z,39.90
2018-10-19T04:24:22.698Z,39.70
2018-10-19T04:25:23.460Z,40.00
2018-10-19T04:26:22.688Z,42.20
2018-10-19T04:27:22.668Z,40.70
2018-10-19T04:28:22.643Z,42.00
2018-10-19T04:29:22.651Z,43.60
2018-10-19T04:30:22.621Z,42.50
2018-10-19T04:31:22.625Z,49.00
2018-10-19T04:32:22.618Z,49.30
2018-10-19T04:33:22.592Z,48.60
2018-10-19T04:34:22.586Z,46.70
2018-10-19T04:35:22.571Z,50.60
2018-10-19T04:36:22.570Z,48.90
2018-10-19T04:37:22.555Z,49.70
2018-10-19T04:38:22.577Z,49.30
2018-10-19T04:39:22.542Z,50.10
2018-10-19T04:40:22.517Z,54.10
2018-10-19T04:41:22.536Z,52.80
2018-10-19T04:42:22.562Z,50.90
2018-10-19T04:43:22.505Z,51.30
2018-10-19T04:44:22.514Z,50.80
2018-10-19T04:45:22.482Z,61.70
2018-10-19T04:46:22.448Z,51.60
2018-10-19T04:47:22.444Z,94.90
2018-10-19T04:48:22.476Z,52.30
2018-10-19T04:49:22.416Z,49.80
2018-10-19T04:50:22.419Z,50.90
2018-10-19T04:51:22.400Z,63.10
2018-10-19T04:52:22.431Z,63.60
2018-10-19T04:53:22.375Z,48.90
2018-10-19T04:54:22.364Z,49.10
2018-10-19T04:55:22.376Z,51.40
2018-10-19T04:56:22.348Z,48.10
2018-10-19T04:57:22.333Z,51.70
2018-10-19T04:58:22.327Z,51.00
2018-10-19T04:59:22.317Z,46.20
2018-10-19T05:00:22.306Z,48.30
2018-10-19T05:01:22.313Z,45.90
2018-10-19T05:02:22.297Z,45.90
2018-10-19T05:03:22.270Z,46.30
2018-10-19T05:04:22.318Z,42.40
2018-10-19T05:05:22.370Z,41.40
2018-10-19T05:06:22.306Z,40.20
2018-10-19T05:07:22.225Z,41.30
2018-10-19T05:08:22.295Z,42.10
2018-10-19T05:09:22.206Z,43.70
2018-10-19T05:10:22.215Z,43.10
2018-10-19T05:11:22.217Z,44.50
2018-10-19T05:12:22.229Z,43.50
2018-10-19T05:13:22.163Z,46.50
2018-10-19T05:14:22.152Z,44.70
2018-10-19T05:15:22.136Z,45.20
2018-10-19T05:16:22.179Z,44.80
2018-10-19T05:17:22.159Z,45.10
2018-10-19T05:18:22.115Z,44.60
2018-10-19T05:19:22.108Z,44.60
2018-10-19T05:20:22.101Z,44.90
2018-10-19T05:21:22.077Z,46.30
2018-10-19T05:22:22.070Z,48.10
2018-10-19T05:23:22.075Z,57.70
2018-10-19T05:24:22.049Z,54.10
2018-10-19T05:25:22.031Z,56.10
2018-10-19T05:26:22.019Z,56.50
2018-10-19T05:27:22.053Z,55.10
2018-10-19T05:28:22.002Z,54.50
2018-10-19T05:29:21.996Z,91.90
2018-10-19T05:30:21.980Z,57.20
2018-10-19T05:31:21.988Z,57.80
2018-10-19T05:32:21.956Z,55.10
2018-10-19T05:33:21.950Z,55.50
2018-10-19T05:34:21.972Z,55.60
2018-10-19T05:35:21.926Z,55.30
2018-10-19T05:36:21.926Z,51.30
2018-10-19T05:37:21.903Z,53.60
2018-10-19T05:38:21.906Z,48.70
2018-10-19T05:39:21.881Z,47.20
2018-10-19T05:40:21.869Z,45.70
2018-10-19T05:41:21.865Z,45.60
2018-10-19T05:42:21.895Z,44.60
2018-10-19T05:43:21.904Z,45.40
2018-10-19T05:44:21.839Z,45.70
2018-10-19T05:45:21.820Z,47.70
2018-10-19T05:46:21.816Z,49.00
2018-10-19T05:47:21.827Z,51.40
2018-10-19T05:48:21.810Z,49.10
2018-10-19T05:49:21.800Z,49.90
2018-10-19T05:50:21.781Z,50.20
2018-10-19T05:51:21.785Z,46.90
2018-10-19T05:52:21.743Z,61.90
2018-10-19T05:53:21.740Z,48.10
2018-10-19T05:54:21.766Z,45.70
2018-10-19T05:55:21.782Z,46.30
2018-10-19T05:56:21.710Z,43.80
2018-10-19T05:57:21.693Z,43.20
2018-10-19T05:58:21.708Z,40.10
2018-10-19T05:59:21.701Z,40.00
2018-10-19T06:00:21.660Z,40.20
2018-10-19T06:01:21.676Z,41.00
2018-10-19T06:02:21.742Z,41.90
2018-10-19T06:03:21.661Z,41.00
2018-10-19T06:04:21.621Z,40.00
2018-10-19T06:05:21.639Z,41.80
2018-10-19T06:06:21.599Z,40.80
2018-10-19T06:07:21.601Z,45.10
2018-10-19T06:08:21.579Z,42.50
2018-10-19T06:09:21.565Z,42.30
2018-10-19T06:10:21.579Z,40.80
2018-10-19T06:11:21.547Z,44.40
2018-10-19T06:12:21.541Z,45.30
2018-10-19T06:13:21.523Z,44.60
2018-10-19T06:14:21.513Z,42.70
2018-10-19T06:15:21.533Z,43.70
2018-10-19T06:16:21.508Z,43.80
2018-10-19T06:17:21.480Z,43.90
2018-10-19T06:18:21.480Z,44.10
2018-10-19T06:19:21.465Z,45.70
2018-10-19T06:20:21.456Z,46.10
2018-10-19T06:21:21.486Z,46.50
2018-10-19T06:22:21.440Z,47.40
2018-10-19T06:23:21.439Z,46.80
2018-10-19T06:24:21.428Z,47.00
2018-10-19T06:25:21.399Z,49.10
2018-10-19T06:26:21.399Z,50.50
2018-10-19T06:27:21.400Z,53.00
2018-10-19T06:28:21.371Z,52.90
2018-10-19T06:29:21.406Z,58.20
2018-10-19T06:30:21.350Z,76.00
2018-10-19T06:31:21.333Z,77.80
2018-10-19T06:32:21.333Z,61.80
2018-10-19T06:33:21.310Z,71.80
2018-10-19T06:34:21.308Z,85.70
2018-10-19T06:35:21.310Z,60.10
2018-10-19T06:36:21.294Z,92.70
2018-10-19T06:37:21.271Z,77.80
2018-10-19T06:38:21.261Z,59.40
2018-10-19T06:39:21.275Z,59.80
2018-10-19T06:40:21.261Z,69.20
2018-10-19T06:41:21.241Z,60.10
2018-10-19T06:42:21.223Z,57.60
2018-10-19T06:43:21.206Z,61.60
2018-10-19T06:44:21.195Z,57.00
2018-10-19T06:45:21.200Z,61.60
2018-10-19T06:46:21.181Z,58.00
2018-10-19T06:47:21.290Z,56.70
2018-10-19T06:48:21.152Z,59.70
2018-10-19T06:49:21.145Z,59.30
2018-10-19T06:50:21.206Z,57.80
2018-10-19T06:51:21.165Z,55.80
2018-10-19T06:52:21.108Z,59.00
2018-10-19T06:53:21.113Z,59.80
2018-10-19T06:54:21.098Z,61.00
2018-10-19T06:55:21.093Z,59.90
2018-10-19T06:56:21.077Z,54.40
2018-10-19T06:57:21.063Z,56.10
2018-10-19T06:58:21.066Z,57.60
2018-10-19T06:59:21.091Z,59.50
2018-10-19T07:00:21.050Z,57.50
2018-10-19T07:01:21.030Z,59.90
2018-10-19T07:02:21.003Z,59.60
2018-10-19T07:03:21.002Z,59.90
2018-10-19T07:04:21.028Z,58.60
2018-10-19T07:05:20.981Z,57.00
2018-10-19T07:06:20.970Z,59.80
2018-10-19T07:07:21.001Z,58.40
2018-10-19T07:08:21.000Z,60.80
2018-10-19T07:09:20.933Z,58.30
2018-10-19T07:10:20.923Z,60.40
2018-10-19T07:11:20.910Z,65.00
2018-10-19T07:12:20.977Z,65.20
2018-10-19T07:13:20.884Z,64.60
2018-10-19T07:14:20.896Z,64.20
2018-10-19T07:15:20.878Z,64.90
2018-10-19T07:16:20.899Z,65.70
2018-10-19T07:17:20.866Z,63.10
2018-10-19T07:18:20.859Z,61.90
2018-10-19T07:19:20.822Z,61.10
2018-10-19T07:20:20.815Z,60.10
2018-10-19T07:21:20.836Z,62.60
2018-10-19T07:22:20.787Z,65.40
2018-10-19T07:23:20.848Z,60.20
2018-10-19T07:24:20.800Z,64.00
2018-10-19T07:25:20.758Z,64.30
2018-10-19T07:26:20.794Z,62.00
2018-10-19T07:27:20.765Z,62.60
2018-10-19T07:28:20.724Z,65.00
2018-10-19T07:29:20.746Z,67.90
2018-10-19T07:30:20.701Z,64.10
2018-10-19T07:31:20.728Z,68.60
2018-10-19T07:32:20.691Z,69.60
2018-10-19T07:33:20.669Z,69.50
2018-10-19T07:34:20.656Z,68.60
2018-10-19T07:35:20.645Z,69.30
2018-10-19T07:36:20.732Z,69.10
2018-10-19T07:37:20.669Z,69.40
2018-10-19T07:38:20.624Z,67.70
2018-10-19T07:39:20.638Z,69.00
2018-10-19T07:40:20.595Z,67.20
2018-10-19T07:41:20.582Z,68.20
2018-10-19T07:42:20.738Z,70.30
2018-10-19T07:43:20.595Z,70.40
2018-10-19T07:44:20.580Z,74.30
2018-10-19T07:45:20.565Z,72.10
2018-10-19T07:46:20.529Z,75.10
2018-10-19T07:47:20.728Z,71.30
2018-10-19T07:48:20.531Z,83.90
2018-10-19T07:49:20.548Z,73.90
2018-10-19T07:50:20.486Z,74.50
2018-10-19T07:51:20.478Z,74.20
2018-10-19T07:52:20.483Z,69.70
2018-10-19T07:53:20.456Z,70.20
2018-10-19T07:54:20.471Z,68.90
2018-10-19T07:55:20.474Z,66.90
2018-10-19T07:56:20.424Z,69.90
2018-10-19T07:57:20.419Z,65.40
2018-10-19T07:58:20.408Z,69.80
2018-10-19T07:59:20.393Z,72.10
2018-10-19T08:00:20.495Z,71.60
2018-10-19T08:01:20.542Z,70.40
2018-10-19T08:02:20.359Z,77.40
2018-10-19T08:03:20.353Z,80.40
2018-10-19T08:04:20.343Z,80.60
2018-10-19T08:05:20.350Z,81.00
2018-10-19T08:06:20.352Z,83.70
2018-10-19T08:07:20.311Z,92.40
2018-10-19T08:08:20.308Z,86.30
2018-10-19T08:09:20.298Z,86.80
2018-10-19T08:10:20.277Z,91.80
2018-10-19T08:11:20.329Z,91.10
2018-10-19T08:12:20.274Z,89.00
2018-10-19T08:13:20.256Z,91.70
2018-10-19T08:14:20.229Z,89.40
2018-10-19T08:15:20.264Z,87.60
2018-10-19T08:16:20.208Z,89.20
2018-10-19T08:17:20.255Z,93.60
2018-10-19T08:18:20.203Z,89.80
2018-10-19T08:19:20.190Z,87.30
2018-10-19T08:20:20.168Z,87.70
2018-10-19T08:21:20.203Z,83.00
2018-10-19T08:22:20.158Z,87.20
2018-10-19T08:23:20.144Z,85.40
2018-10-19T08:24:20.125Z,84.80
2018-10-19T08:25:20.118Z,84.10
2018-10-19T08:26:20.111Z,84.30
2018-10-19T08:27:20.156Z,83.90
2018-10-19T08:28:20.085Z,83.80
2018-10-19T08:29:20.078Z,89.90
2018-10-19T08:30:20.126Z,87.00
2018-10-19T08:31:20.101Z,82.60
2018-10-19T08:32:20.084Z,83.90
2018-10-19T08:33:20.042Z,86.70
2018-10-19T08:34:20.029Z,85.80
2018-10-19T08:35:20.006Z,88.70
2018-10-19T08:36:20.009Z,86.10
2018-10-19T08:37:20.047Z,89.50
2018-10-19T08:38:20.031Z,87.30
2018-10-19T08:39:19.972Z,86.30
2018-10-19T08:40:19.953Z,84.40
2018-10-19T08:41:20.063Z,86.70
2018-10-19T08:42:20.007Z,83.70
2018-10-19T08:43:20.161Z,86.60
2018-10-19T08:44:19.971Z,86.10
2018-10-19T08:45:19.943Z,87.20
2018-10-19T08:46:19.945Z,88.80
2018-10-19T08:47:19.904Z,85.80
2018-10-19T08:48:19.897Z,85.60
2018-10-19T08:49:19.878Z,85.30
2018-10-19T08:50:19.857Z,86.10
2018-10-19T08:51:19.836Z,87.80
2018-10-19T08:52:19.823Z,85.90
2018-10-19T08:53:19.921Z,84.40
2018-10-19T08:54:19.851Z,80.50
2018-10-19T08:55:19.792Z,81.10
2018-10-19T08:56:19.785Z,83.00
2018-10-19T08:57:19.794Z,84.10
2018-10-19T08:58:19.838Z,88.50
2018-10-19T08:59:19.846Z,89.60
2018-10-19T09:00:19.803Z,84.70
2018-10-19T09:01:19.731Z,89.60
2018-10-19T09:02:19.731Z,85.20
2018-10-19T09:03:19.723Z,86.50
2018-10-19T09:04:19.722Z,88.70
2018-10-19T09:05:19.684Z,88.70
2018-10-19T09:06:19.673Z,87.80
2018-10-19T09:07:19.732Z,86.20
2018-10-19T09:08:19.657Z,80.70
2018-10-19T09:09:19.663Z,87.90
2018-10-19T09:10:19.643Z,83.30
2018-10-19T09:11:19.705Z,83.90
2018-10-19T09:12:19.671Z,84.80
2018-10-19T09:13:19.603Z,83.60
2018-10-19T09:14:19.593Z,84.20
2018-10-19T09:15:19.808Z,80.40
2018-10-19T09:16:19.589Z,77.80
2018-10-19T09:17:19.554Z,77.10
2018-10-19T09:18:19.589Z,79.60
2018-10-19T09:19:19.580Z,77.80
2018-10-19T09:20:19.570Z,75.30
2018-10-19T09:21:20.766Z,77.50
2018-10-19T09:22:19.552Z,73.90
2018-10-19T09:23:19.490Z,73.10
2018-10-19T09:24:19.479Z,74.90
2018-10-19T09:25:19.473Z,76.90
2018-10-19T09:26:19.516Z,75.70
2018-10-19T09:27:19.472Z,74.70
2018-10-19T09:28:19.442Z,76.80
2018-10-19T09:29:19.486Z,79.20
2018-10-19T09:30:19.421Z,79.90
2018-10-19T09:31:19.440Z,75.50
2018-10-19T09:32:19.419Z,73.60
2018-10-19T09:33:19.385Z,75.20
2018-10-19T09:34:19.392Z,74.70
2018-10-19T09:35:19.507Z,78.80
2018-10-19T09:36:19.561Z,77.20
2018-10-19T09:37:19.393Z,77.10
2018-10-19T09:38:19.353Z,76.50
2018-10-19T09:39:19.349Z,75.90
2018-10-19T09:40:19.415Z,76.00
2018-10-19T09:41:19.370Z,76.70
2018-10-19T09:42:19.307Z,75.00
2018-10-19T09:43:19.297Z,74.50
2018-10-19T09:44:19.283Z,77.70
2018-10-19T09:45:19.293Z,76.00
2018-10-19T09:46:19.314Z,72.60
2018-10-19T09:47:19.257Z,72.50
2018-10-19T09:48:19.240Z,75.20
2018-10-19T09:49:19.220Z,73.30
2018-10-19T09:50:19.226Z,74.70
2018-10-19T09:51:19.210Z,76.10
2018-10-19T09:52:19.215Z,78.10
2018-10-19T09:53:19.235Z,77.20
2018-10-19T09:54:19.172Z,72.60
2018-10-19T09:55:19.217Z,74.00
2018-10-19T09:56:19.212Z,78.70
2018-10-19T09:57:19.131Z,76.00
2018-10-19T09:58:19.133Z,74.90
2018-10-19T09:59:19.122Z,69.40
2018-10-19T10:00:19.134Z,75.20
2018-10-19T10:01:19.119Z,76.50
2018-10-19T10:02:19.083Z,75.10
2018-10-19T10:03:19.088Z,73.70
2018-10-19T10:04:19.076Z,74.80
2018-10-19T10:05:19.049Z,72.10
2018-10-19T10:06:19.037Z,71.40
2018-10-19T10:07:19.051Z,76.60
2018-10-19T10:08:19.045Z,73.90
2018-10-19T10:09:19.014Z,74.10
2018-10-19T10:10:18.991Z,71.30
2018-10-19T10:11:19.010Z,72.40
2018-10-19T10:12:18.977Z,70.60
2018-10-19T10:13:18.967Z,71.60
2018-10-19T10:14:18.990Z,70.90
2018-10-19T10:15:18.961Z,70.60
2018-10-19T10:16:18.942Z,72.00
2018-10-19T10:17:18.993Z,71.60
2018-10-19T10:18:18.906Z,70.20
2018-10-19T10:19:18.913Z,68.30
2018-10-19T10:20:18.975Z,66.70
2018-10-19T10:21:19.494Z,71.30
2018-10-19T10:22:18.886Z,68.50
2018-10-19T10:23:18.909Z,69.90
2018-10-19T10:24:18.866Z,68.60
2018-10-19T10:25:18.943Z,69.30
2018-10-19T10:26:18.887Z,70.20
2018-10-19T10:27:18.830Z,71.90
2018-10-19T10:28:18.812Z,71.40
2018-10-19T10:29:18.802Z,70.50
2018-10-19T10:30:18.785Z,69.30
2018-10-19T10:31:18.771Z,68.30
2018-10-19T10:32:18.828Z,68.70
2018-10-19T10:33:18.799Z,68.60
2018-10-19T10:34:18.744Z,65.80
2018-10-19T10:35:18.736Z,67.20
2018-10-19T10:36:18.731Z,67.70
2018-10-19T10:37:18.708Z,68.70
2018-10-19T10:38:18.700Z,69.50
2018-10-19T10:39:18.800Z,66.10
2018-10-19T10:40:18.747Z,69.10
2018-10-19T10:41:18.667Z,68.80
2018-10-19T10:42:18.677Z,68.40
2018-10-19T10:43:18.648Z,68.40
2018-10-19T10:44:18.645Z,72.00
2018-10-19T10:45:18.629Z,70.10
2018-10-19T10:46:18.704Z,68.50
2018-10-19T10:47:18.614Z,71.20
2018-10-19T10:48:18.626Z,69.30
2018-10-19T10:49:18.612Z,73.20
2018-10-19T10:50:18.586Z,73.40
2018-10-19T10:51:18.569Z,74.30
2018-10-19T10:52:18.595Z,73.70
2018-10-19T10:53:18.548Z,73.70
2018-10-19T10:54:18.549Z,71.10
2018-10-19T10:55:18.635Z,73.20
2018-10-19T10:56:18.517Z,72.40
2018-10-19T10:57:18.514Z,73.90
2018-10-19T10:58:18.503Z,71.90
2018-10-19T10:59:18.486Z,72.80
2018-10-19T11:00:18.524Z,74.10
2018-10-19T11:01:18.497Z,74.90
2018-10-19T11:02:18.474Z,74.40
2018-10-19T11:03:18.443Z,69.50
2018-10-19T11:04:18.437Z,74.20
2018-10-19T11:05:18.502Z,73.10
2018-10-19T11:06:18.414Z,67.10
2018-10-19T11:07:18.497Z,69.90
2018-10-19T11:08:18.421Z,68.60
2018-10-19T11:09:18.398Z,66.20
2018-10-19T11:10:18.460Z,70.40
2018-10-19T11:11:18.366Z,69.00
2018-10-19T11:12:18.361Z,68.30
2018-10-19T11:13:18.343Z,68.70
2018-10-19T11:14:18.348Z,70.20
2018-10-19T11:15:18.323Z,70.20
2018-10-19T11:16:18.342Z,71.70
2018-10-19T11:17:18.298Z,69.40
2018-10-19T11:18:18.331Z,67.40
2018-10-19T11:19:18.305Z,66.70
2018-10-19T11:20:18.289Z,67.80
2018-10-19T11:21:18.275Z,68.20
2018-10-19T11:22:18.293Z,69.80
2018-10-19T11:23:18.240Z,71.00
2018-10-19T11:24:18.230Z,68.50
2018-10-19T11:25:18.218Z,67.00
2018-10-19T11:26:18.206Z,65.80
2018-10-19T11:27:18.237Z,65.60
2018-10-19T11:28:18.302Z,64.80
2018-10-19T11:29:18.177Z,64.60
2018-10-19T11:30:18.173Z,68.90
2018-10-19T11:31:18.296Z,64.00
2018-10-19T11:32:18.198Z,64.20
2018-10-19T11:33:18.134Z,62.70
2018-10-19T11:34:18.158Z,69.00
2018-10-19T11:35:18.115Z,64.60
2018-10-19T11:36:18.118Z,64.30
2018-10-19T11:37:18.113Z,62.40
2018-10-19T11:38:18.098Z,64.10
2018-10-19T11:39:18.092Z,61.90
2018-10-19T11:40:18.093Z,62.40
2018-10-19T11:41:18.059Z,63.70
2018-10-19T11:42:18.042Z,61.10
2018-10-19T11:43:18.146Z,62.10
2018-10-19T11:44:18.052Z,63.20
2018-10-19T11:45:18.008Z,59.80
2018-10-19T11:46:18.022Z,61.50
2018-10-19T11:47:18.013Z,63.10
2018-10-19T11:48:17.977Z,60.90
2018-10-19T11:49:18.113Z,63.30
2018-10-19T11:50:18.018Z,61.10
2018-10-19T11:51:17.944Z,63.10
2018-10-19T11:52:17.937Z,60.80
2018-10-19T11:53:17.938Z,61.20
2018-10-19T11:54:17.926Z,62.10
2018-10-19T11:55:17.913Z,63.60
2018-10-19T11:56:17.916Z,65.10
2018-10-19T11:57:17.896Z,63.00
2018-10-19T11:58:17.956Z,63.80
2018-10-19T11:59:17.860Z,64.50
2018-10-19T12:00:17.855Z,62.50
2018-10-19T12:01:17.848Z,63.30
2018-10-19T12:02:17.831Z,64.00
2018-10-19T12:03:17.830Z,64.70
2018-10-19T12:04:18.028Z,64.30
2018-10-19T12:05:17.852Z,63.90
2018-10-19T12:06:17.815Z,60.30
2018-10-19T12:07:17.779Z,63.60
2018-10-19T12:08:17.774Z,62.70
2018-10-19T12:09:17.761Z,64.50
2018-10-19T12:10:17.845Z,61.00
2018-10-19T12:11:17.758Z,64.60
2018-10-19T12:12:17.756Z,60.50
2018-10-19T12:13:17.750Z,63.20
2018-10-19T12:14:17.709Z,62.70
2018-10-19T12:15:17.842Z,60.90
2018-10-19T12:16:17.755Z,59.40
2018-10-19T12:17:17.738Z,62.50
2018-10-19T12:18:17.666Z,59.00
2018-10-19T12:19:17.670Z,61.40
2018-10-19T12:20:17.650Z,62.80
2018-10-19T12:21:17.810Z,64.50
2018-10-19T12:22:17.677Z,62.50
2018-10-19T12:23:17.644Z,62.70
2018-10-19T12:24:17.610Z,64.60
2018-10-19T12:25:17.626Z,61.70
2018-10-19T12:26:17.582Z,63.60
2018-10-19T12:27:17.604Z,66.80
2018-10-19T12:28:17.581Z,66.20
2018-10-19T12:29:17.572Z,67.30
2018-10-19T12:30:17.552Z,67.10
2018-10-19T12:31:17.590Z,67.10
2018-10-19T12:32:17.541Z,68.60
2018-10-19T12:33:17.616Z,66.20
2018-10-19T12:34:17.526Z,63.80
2018-10-19T12:35:17.521Z,64.10
2018-10-19T12:36:17.516Z,64.90
2018-10-19T12:37:17.585Z,62.90
2018-10-19T12:38:17.458Z,64.50
2018-10-19T12:39:17.536Z,67.80
2018-10-19T12:40:17.451Z,66.20
2018-10-19T12:41:17.586Z,63.10
2018-10-19T12:42:17.434Z,62.70
2018-10-19T12:43:17.431Z,63.20
2018-10-19T12:44:17.401Z,64.40
2018-10-19T12:45:17.490Z,63.30
2018-10-19T12:46:17.387Z,63.90
2018-10-19T12:47:17.396Z,63.70
2018-10-19T12:48:17.386Z,63.80
2018-10-19T12:49:17.501Z,61.20
2018-10-19T12:50:17.337Z,60.30
2018-10-19T12:51:17.328Z,60.70
2018-10-19T12:52:17.331Z,61.10